Thunder radar more information blitzortung!


Radar de pluja more information rain snow radar


Visita la nostra xarxa de llocs de meteo:

Template documentation
and downloads

And another site



Extreme low temperature From: 13-12-2017 09:00 Until: 09:59 warning for: Extreme low temperature Level: Yellow info button

Pagina Historial Weather Underground text

Diari Resum May 9, 2017 Unitats:  Tant    Imperial   Mètric
« Previous Dia
SegĂźent Dia »
Diari Setmana Mensual Anual Personalitzada
  Maxima: Minima: Media:
Temperatura: 76.8 °F /  24.9 °C 50.4 °F /  10.2 °C 64.2 °F /  17.9 °C
Punt de rosada: 54.1 °F /  12.3 °C 43.3 °F /  6.3 °C 50.7 °F /  10.4 °C
Humitat: 81 % 36 % 63 %
Wind Speed: 12.7 mph /  20.4 km/h - 4.2 mph /  6.7 km/h
RĂ fegues de vent: 12.7 mph /  20.4 km/h - -
Vent:- - SE
Pression baro: 30 in /  1015.8 hPa 29.7 in /  1006.0 hPa -
Precipitacions: 0 in /  0.0 mm    
Historical Graphs
 
 
Dades de taula per May 9, 2017
Temps Temperatura Punt de rosada Pression baro Vent Wind Speed RĂ fegues de vent Humitat Rainfall Rate (Hourly)
00:00 58.3 °F /  14.6 °C 46.6 °F /  8.1 °C 30 in /  1015.8 hPa Calm     65 % 0 in /  0.0 mm
00:05 58.1 °F /  14.5 °C 46.4 °F /  8.0 °C 30 in /  1015.8 hPa Calm     65 % 0 in /  0.0 mm
00:10 51.6 °F /  10.9 °C 44.2 °F /  6.8 °C 29.9 in /  1013.8 hPa Calm   2 mph /  3.2 km/h 76 % 0 in /  0.0 mm
00:20 51.6 °F /  10.9 °C 44.2 °F /  6.8 °C 29.9 in /  1013.8 hPa SW 1 mph /  1.6 km/h 1 mph /  1.6 km/h 76 % 0 in /  0.0 mm
00:30 51.4 °F /  10.8 °C 44.1 °F /  6.7 °C 29.9 in /  1013.8 hPa Calm     76 % 0 in /  0.0 mm
00:40 51.3 °F /  10.7 °C 44.1 °F /  6.7 °C 29.9 in /  1013.8 hPa Calm     76 % 0 in /  0.0 mm
00:50 51.1 °F /  10.6 °C 43.9 °F /  6.6 °C 29.9 in /  1013.8 hPa SW 1 mph /  1.6 km/h 1 mph /  1.6 km/h 76 % 0 in /  0.0 mm
01:00 51.1 °F /  10.6 °C 43.9 °F /  6.6 °C 29.9 in /  1013.8 hPa WSW 1 mph /  1.6 km/h 2 mph /  3.2 km/h 76 % 0 in /  0.0 mm
01:10 50.9 °F /  10.5 °C 43.9 °F /  6.6 °C 29.9 in /  1013.8 hPa Calm     77 % 0 in /  0.0 mm
01:20 50.9 °F /  10.5 °C 43.9 °F /  6.6 °C 29.9 in /  1013.8 hPa Calm     77 % 0 in /  0.0 mm
01:30 51.1 °F /  10.6 °C 44.1 °F /  6.7 °C 29.9 in /  1013.8 hPa Calm     77 % 0 in /  0.0 mm
01:40 50.9 °F /  10.5 °C 43.9 °F /  6.6 °C 29.9 in /  1013.8 hPa Calm     77 % 0 in /  0.0 mm
01:50 50.4 °F /  10.2 °C 43.3 °F /  6.3 °C 29.9 in /  1012.8 hPa Calm     77 % 0 in /  0.0 mm
02:00 50.4 °F /  10.2 °C 43.3 °F /  6.3 °C 29.9 in /  1012.8 hPa WSW 1 mph /  1.6 km/h 2 mph /  3.2 km/h 77 % 0 in /  0.0 mm
02:10 50.4 °F /  10.2 °C 43.9 °F /  6.6 °C 29.9 in /  1013.8 hPa SW 1 mph /  1.6 km/h 2 mph /  3.2 km/h 78 % 0 in /  0.0 mm
02:20 50.5 °F /  10.3 °C 43.9 °F /  6.6 °C 30 in /  1014.8 hPa SW 1 mph /  1.6 km/h 2 mph /  3.2 km/h 78 % 0 in /  0.0 mm
02:30 50.7 °F /  10.4 °C 44.1 °F /  6.7 °C 30 in /  1014.8 hPa SW 1 mph /  1.6 km/h 1 mph /  1.6 km/h 78 % 0 in /  0.0 mm
02:40 51.1 °F /  10.6 °C 44.4 °F /  6.9 °C 29.9 in /  1012.8 hPa SW 1 mph /  1.6 km/h 2 mph /  3.2 km/h 78 % 0 in /  0.0 mm
02:50 52 °F /  11.1 °C 45.3 °F /  7.4 °C 29.9 in /  1013.8 hPa SW 1 mph /  1.6 km/h 2 mph /  3.2 km/h 78 % 0 in /  0.0 mm
03:00 52.7 °F /  11.5 °C 45.7 °F /  7.6 °C 29.9 in /  1013.8 hPa SW 1 mph /  1.6 km/h 3 mph /  4.8 km/h 77 % 0 in /  0.0 mm
03:10 53.8 °F /  12.1 °C 46.8 °F /  8.2 °C 29.9 in /  1013.8 hPa Calm   2 mph /  3.2 km/h 77 % 0 in /  0.0 mm
03:20 54.9 °F /  12.7 °C 47.8 °F /  8.8 °C 29.9 in /  1013.8 hPa Calm   2 mph /  3.2 km/h 77 % 0 in /  0.0 mm
03:30 56.8 °F /  13.8 °C 49.5 °F /  9.7 °C 29.9 in /  1013.8 hPa Calm   1 mph /  1.6 km/h 76 % 0 in /  0.0 mm
03:40 56.1 °F /  13.4 °C 48.4 °F /  9.1 °C 29.9 in /  1013.8 hPa SW 2 mph /  3.2 km/h 2 mph /  3.2 km/h 75 % 0 in /  0.0 mm
03:50 57.4 °F /  14.1 °C 49.5 °F /  9.7 °C 29.9 in /  1013.8 hPa Calm   2 mph /  3.2 km/h 75 % 0 in /  0.0 mm
04:00 58.6 °F /  14.8 °C 50 °F /  10.0 °C 29.9 in /  1013.8 hPa SSW 1 mph /  1.6 km/h 2 mph /  3.2 km/h 73 % 0 in /  0.0 mm
04:10 58.3 °F /  14.6 °C 49.3 °F /  9.6 °C 29.9 in /  1013.8 hPa ESE 2 mph /  3.2 km/h 4 mph /  6.4 km/h 72 % 0 in /  0.0 mm
04:20 58.8 °F /  14.9 °C 49.5 °F /  9.7 °C 29.9 in /  1013.8 hPa ESE 2 mph /  3.2 km/h 3 mph /  4.8 km/h 71 % 0 in /  0.0 mm
04:30 59.7 °F /  15.4 °C 50.4 °F /  10.2 °C 29.9 in /  1013.8 hPa East 2 mph /  3.2 km/h 2 mph /  3.2 km/h 71 % 0 in /  0.0 mm
04:40 60.3 °F /  15.7 °C 50.4 °F /  10.2 °C 29.9 in /  1013.8 hPa East 2 mph /  3.2 km/h 4 mph /  6.4 km/h 70 % 0 in /  0.0 mm
04:50 61.3 °F /  16.3 °C 51.1 °F /  10.6 °C 29.9 in /  1013.8 hPa East 2 mph /  3.2 km/h 5 mph /  8.0 km/h 69 % 0 in /  0.0 mm
05:00 62.4 °F /  16.9 °C 51.6 °F /  10.9 °C 29.9 in /  1013.8 hPa ENE 3 mph /  4.8 km/h 4 mph /  6.4 km/h 68 % 0 in /  0.0 mm
05:10 62.2 °F /  16.8 °C 51.4 °F /  10.8 °C 29.9 in /  1013.8 hPa East 2 mph /  3.2 km/h 6 mph /  9.7 km/h 68 % 0 in /  0.0 mm
05:20 63.5 °F /  17.5 °C 52.3 °F /  11.3 °C 29.9 in /  1013.8 hPa ESE 2 mph /  3.2 km/h 6 mph /  9.7 km/h 67 % 0 in /  0.0 mm
05:30 63.7 °F /  17.6 °C 51.6 °F /  10.9 °C 29.9 in /  1013.8 hPa East 3 mph /  4.8 km/h 4 mph /  6.4 km/h 65 % 0 in /  0.0 mm
05:40 65.3 °F /  18.5 °C 53.2 °F /  11.8 °C 29.9 in /  1013.8 hPa ESE 3 mph /  4.8 km/h 3 mph /  4.8 km/h 65 % 0 in /  0.0 mm
05:50 65.3 °F /  18.5 °C 52.9 °F /  11.6 °C 29.9 in /  1013.8 hPa ESE 3 mph /  4.8 km/h 5 mph /  8.0 km/h 64 % 0 in /  0.0 mm
06:00 64.8 °F /  18.2 °C 52 °F /  11.1 °C 29.9 in /  1013.8 hPa ESE 3 mph /  4.8 km/h 6 mph /  9.7 km/h 63 % 0 in /  0.0 mm
11:02 65.8 °F /  18.8 °C 52.9 °F /  11.6 °C 29.9 in /  1013.8 hPa ENE 4 mph /  6.4 km/h 4 mph /  6.4 km/h 63 % 0 in /  0.0 mm
11:07 65.3 °F /  18.5 °C 52.3 °F /  11.3 °C 29.9 in /  1013.8 hPa NNE 5.8 mph /  9.3 km/h 5.8 mph /  9.3 km/h 63 % 0 in /  0.0 mm
11:12 65.7 °F /  18.7 °C 52.3 °F /  11.3 °C 29.9 in /  1013.8 hPa SE 5.8 mph /  9.3 km/h 5.8 mph /  9.3 km/h 62 % 0 in /  0.0 mm
11:17 66.4 °F /  19.1 °C 53.1 °F /  11.7 °C 29.9 in /  1013.8 hPa NE 3.5 mph /  5.6 km/h 3.5 mph /  5.6 km/h 62 % 0 in /  0.0 mm
11:22 66.4 °F /  19.1 °C 52.2 °F /  11.2 °C 29.9 in /  1013.8 hPa SE 6.9 mph /  11.1 km/h 6.9 mph /  11.1 km/h 60 % 0 in /  0.0 mm
11:27 66 °F /  18.9 °C 52.5 °F /  11.4 °C 29.9 in /  1013.8 hPa ENE 4.6 mph /  7.4 km/h 4.6 mph /  7.4 km/h 62 % 0 in /  0.0 mm
11:32 67.3 °F /  19.6 °C 53.4 °F /  11.9 °C 29.9 in /  1013.8 hPa East 4.6 mph /  7.4 km/h 4.6 mph /  7.4 km/h 61 % 0 in /  0.0 mm
11:37 67.3 °F /  19.6 °C 52.9 °F /  11.6 °C 29.9 in /  1013.8 hPa ESE 3.6 mph /  5.8 km/h 3.6 mph /  5.8 km/h 60 % 0 in /  0.0 mm
11:42 66.7 °F /  19.3 °C 52.3 °F /  11.3 °C 29.9 in /  1012.8 hPa ESE 2.6 mph /  4.2 km/h 2.6 mph /  4.2 km/h 60 % 0 in /  0.0 mm
11:47 67.6 °F /  19.8 °C 53.2 °F /  11.8 °C 29.9 in /  1012.8 hPa ENE 3.5 mph /  5.6 km/h 3.5 mph /  5.6 km/h 60 % 0 in /  0.0 mm
11:52 67.1 °F /  19.5 °C 52.3 °F /  11.3 °C 29.9 in /  1012.8 hPa East 5.8 mph /  9.3 km/h 5.8 mph /  9.3 km/h 59 % 0 in /  0.0 mm
11:57 68.5 °F /  20.3 °C 53.2 °F /  11.8 °C 29.9 in /  1012.8 hPa SSE 3.8 mph /  6.1 km/h 3.8 mph /  6.1 km/h 58 % 0 in /  0.0 mm
12:02 68.9 °F /  20.5 °C 53.4 °F /  11.9 °C 29.9 in /  1012.8 hPa ESE 3.5 mph /  5.6 km/h 3.5 mph /  5.6 km/h 58 % 0 in /  0.0 mm
12:07 67.8 °F /  19.9 °C 53.1 °F /  11.7 °C 29.9 in /  1012.8 hPa East 4.6 mph /  7.4 km/h 4.6 mph /  7.4 km/h 59 % 0 in /  0.0 mm
12:12 68.5 °F /  20.3 °C 53.2 °F /  11.8 °C 29.9 in /  1011.7 hPa SSE 5.8 mph /  9.3 km/h 5.8 mph /  9.3 km/h 58 % 0 in /  0.0 mm
12:17 68.9 °F /  20.5 °C 53.1 °F /  11.7 °C 29.9 in /  1011.7 hPa ESE 4.9 mph /  7.9 km/h 4.9 mph /  7.9 km/h 57 % 0 in /  0.0 mm
12:22 68.5 °F /  20.3 °C 52.7 °F /  11.5 °C 29.9 in /  1011.7 hPa NNE 6.9 mph /  11.1 km/h 6.9 mph /  11.1 km/h 57 % 0 in /  0.0 mm
12:27 69.4 °F /  20.8 °C 53.4 °F /  11.9 °C 29.9 in /  1011.7 hPa ENE 3.8 mph /  6.1 km/h 3.8 mph /  6.1 km/h 57 % 0 in /  0.0 mm
12:32 70.5 °F /  21.4 °C 54.1 °F /  12.3 °C 29.9 in /  1011.7 hPa SSE 3.5 mph /  5.6 km/h 3.5 mph /  5.6 km/h 56 % 0 in /  0.0 mm
12:37 70.2 °F /  21.2 °C 52.7 °F /  11.5 °C 29.9 in /  1011.7 hPa ESE 5.8 mph /  9.3 km/h 5.8 mph /  9.3 km/h 54 % 0 in /  0.0 mm
12:42 69.6 °F /  20.9 °C 52.7 °F /  11.5 °C 29.9 in /  1011.7 hPa South 8.1 mph /  13.0 km/h 8.1 mph /  13.0 km/h 55 % 0 in /  0.0 mm
12:47 69.1 °F /  20.6 °C 52.7 °F /  11.5 °C 29.9 in /  1011.7 hPa ESE 6.9 mph /  11.1 km/h 6.9 mph /  11.1 km/h 56 % 0 in /  0.0 mm
12:52 68.9 °F /  20.5 °C 52.2 °F /  11.2 °C 29.9 in /  1011.7 hPa East 6.9 mph /  11.1 km/h 6.9 mph /  11.1 km/h 55 % 0 in /  0.0 mm
12:57 68.7 °F /  20.4 °C 52 °F /  11.1 °C 29.9 in /  1011.7 hPa East 9.2 mph /  14.8 km/h 9.2 mph /  14.8 km/h 55 % 0 in /  0.0 mm
13:02 68.5 °F /  20.3 °C 51.6 °F /  10.9 °C 29.9 in /  1011.7 hPa East 8.1 mph /  13.0 km/h 8.1 mph /  13.0 km/h 55 % 0 in /  0.0 mm
13:07 68.7 °F /  20.4 °C 52 °F /  11.1 °C 29.9 in /  1011.7 hPa ESE 10.4 mph /  16.7 km/h 10.4 mph /  16.7 km/h 55 % 0 in /  0.0 mm
13:12 69.3 °F /  20.7 °C 52.3 °F /  11.3 °C 29.9 in /  1011.7 hPa SSE 9.2 mph /  14.8 km/h 9.2 mph /  14.8 km/h 55 % 0 in /  0.0 mm
13:17 68.7 °F /  20.4 °C 52 °F /  11.1 °C 29.9 in /  1011.7 hPa East 11.5 mph /  18.5 km/h 11.5 mph /  18.5 km/h 55 % 0 in /  0.0 mm
13:22 68.5 °F /  20.3 °C 51.6 °F /  10.9 °C 29.9 in /  1011.7 hPa East 10.4 mph /  16.7 km/h 10.4 mph /  16.7 km/h 55 % 0 in /  0.0 mm
13:27 68.4 °F /  20.2 °C 51.6 °F /  10.9 °C 29.9 in /  1011.7 hPa ENE 11.5 mph /  18.5 km/h 11.5 mph /  18.5 km/h 55 % 0 in /  0.0 mm
13:32 68.9 °F /  20.5 °C 52.2 °F /  11.2 °C 29.9 in /  1011.7 hPa ESE 6.9 mph /  11.1 km/h 6.9 mph /  11.1 km/h 55 % 0 in /  0.0 mm
13:37 69.3 °F /  20.7 °C 52.9 °F /  11.6 °C 29.9 in /  1011.7 hPa SSE 8.1 mph /  13.0 km/h 8.1 mph /  13.0 km/h 56 % 0 in /  0.0 mm
13:42 69.8 °F /  21.0 °C 52.9 °F /  11.6 °C 29.9 in /  1011.7 hPa SSE 6.9 mph /  11.1 km/h 6.9 mph /  11.1 km/h 55 % 0 in /  0.0 mm
13:47 69.6 °F /  20.9 °C 52.7 °F /  11.5 °C 29.9 in /  1011.7 hPa ESE 8.1 mph /  13.0 km/h 8.1 mph /  13.0 km/h 55 % 0 in /  0.0 mm
13:52 69.4 °F /  20.8 °C 52.5 °F /  11.4 °C 29.9 in /  1011.7 hPa SE 8.1 mph /  13.0 km/h 8.1 mph /  13.0 km/h 55 % 0 in /  0.0 mm
13:53 69.4 °F /  20.8 °C 52.5 °F /  11.4 °C 29.9 in /  1011.7 hPa ESE 9.2 mph /  14.8 km/h 9.2 mph /  14.8 km/h 55 % 0 in /  0.0 mm
13:58 68.5 °F /  20.3 °C 51.6 °F /  10.9 °C 29.9 in /  1011.7 hPa SSW 8.1 mph /  13.0 km/h 8.1 mph /  13.0 km/h 55 % 0 in /  0.0 mm
14:03 68.7 °F /  20.4 °C 52 °F /  11.1 °C 29.9 in /  1011.7 hPa SE 9.2 mph /  14.8 km/h 9.2 mph /  14.8 km/h 55 % 0 in /  0.0 mm
14:08 68.7 °F /  20.4 °C 51.4 °F /  10.8 °C 29.9 in /  1011.7 hPa SE 9.2 mph /  14.8 km/h 9.2 mph /  14.8 km/h 54 % 0 in /  0.0 mm
14:13 68.7 °F /  20.4 °C 52 °F /  11.1 °C 29.8 in /  1010.7 hPa SE 9.2 mph /  14.8 km/h 9.2 mph /  14.8 km/h 55 % 0 in /  0.0 mm
14:18 68.9 °F /  20.5 °C 52.2 °F /  11.2 °C 29.8 in /  1010.7 hPa SE 4.6 mph /  7.4 km/h 4.6 mph /  7.4 km/h 55 % 0 in /  0.0 mm
14:23 68.9 °F /  20.5 °C 51.6 °F /  10.9 °C 29.8 in /  1010.7 hPa East 10.4 mph /  16.7 km/h 10.4 mph /  16.7 km/h 54 % 0 in /  0.0 mm
14:28 69.3 °F /  20.7 °C 52.3 °F /  11.3 °C 29.8 in /  1010.0 hPa ESE 4.6 mph /  7.4 km/h 4.6 mph /  7.4 km/h 55 % 0 in /  0.0 mm
14:33 69.4 °F /  20.8 °C 52.5 °F /  11.4 °C 29.8 in /  1010.0 hPa ENE 5.8 mph /  9.3 km/h 5.8 mph /  9.3 km/h 55 % 0 in /  0.0 mm
14:38 69.1 °F /  20.6 °C 51.6 °F /  10.9 °C 29.8 in /  1010.0 hPa NNE 9.2 mph /  14.8 km/h 9.2 mph /  14.8 km/h 54 % 0 in /  0.0 mm
14:43 69.6 °F /  20.9 °C 52.7 °F /  11.5 °C 29.8 in /  1010.0 hPa NNE 4.9 mph /  7.9 km/h 4.9 mph /  7.9 km/h 55 % 0 in /  0.0 mm
14:48 69.3 °F /  20.7 °C 52 °F /  11.1 °C 29.8 in /  1010.0 hPa SE 9.2 mph /  14.8 km/h 9.2 mph /  14.8 km/h 54 % 0 in /  0.0 mm
14:53 69.8 °F /  21.0 °C 52 °F /  11.1 °C 29.8 in /  1010.0 hPa ESE 8.1 mph /  13.0 km/h 8.1 mph /  13.0 km/h 53 % 0 in /  0.0 mm
14:58 69.4 °F /  20.8 °C 52.2 °F /  11.2 °C 29.8 in /  1009.0 hPa ENE 10.4 mph /  16.7 km/h 10.4 mph /  16.7 km/h 54 % 0 in /  0.0 mm
15:03 69.4 °F /  20.8 °C 52.2 °F /  11.2 °C 29.8 in /  1009.0 hPa SSE 12.1 mph /  19.5 km/h 12.1 mph /  19.5 km/h 54 % 0 in /  0.0 mm
15:08 69.8 °F /  21.0 °C 52 °F /  11.1 °C 29.8 in /  1009.0 hPa ESE 9.2 mph /  14.8 km/h 9.2 mph /  14.8 km/h 53 % 0 in /  0.0 mm
15:13 69.8 °F /  21.0 °C 52 °F /  11.1 °C 29.8 in /  1010.0 hPa ENE 6.9 mph /  11.1 km/h 6.9 mph /  11.1 km/h 53 % 0 in /  0.0 mm
15:18 70.3 °F /  21.3 °C 52.3 °F /  11.3 °C 29.8 in /  1010.0 hPa SSE 4.6 mph /  7.4 km/h 4.6 mph /  7.4 km/h 53 % 0 in /  0.0 mm
15:23 70.2 °F /  21.2 °C 51.6 °F /  10.9 °C 29.8 in /  1010.0 hPa ENE 12.7 mph /  20.4 km/h 12.7 mph /  20.4 km/h 52 % 0 in /  0.0 mm
15:28 70.7 °F /  21.5 °C 52.2 °F /  11.2 °C 29.8 in /  1010.0 hPa ESE 5.8 mph /  9.3 km/h 5.8 mph /  9.3 km/h 52 % 0 in /  0.0 mm
15:33 70.3 °F /  21.3 °C 52.3 °F /  11.3 °C 29.8 in /  1010.0 hPa ENE 7.1 mph /  11.4 km/h 7.1 mph /  11.4 km/h 53 % 0 in /  0.0 mm
15:38 70.5 °F /  21.4 °C 52 °F /  11.1 °C 29.8 in /  1010.0 hPa NNE 4.6 mph /  7.4 km/h 4.6 mph /  7.4 km/h 52 % 0 in /  0.0 mm
15:43 71.4 °F /  21.9 °C 53.4 °F /  11.9 °C 29.8 in /  1010.0 hPa SSW 6.9 mph /  11.1 km/h 6.9 mph /  11.1 km/h 53 % 0 in /  0.0 mm
15:48 72.9 °F /  22.7 °C 52.5 °F /  11.4 °C 29.8 in /  1010.0 hPa SSW 4.6 mph /  7.4 km/h 4.6 mph /  7.4 km/h 49 % 0 in /  0.0 mm
15:50 73.6 °F /  23.1 °C 52.7 °F /  11.5 °C 29.8 in /  1010.0 hPa SW 2.3 mph /  3.7 km/h 2.3 mph /  3.7 km/h 48 % 0 in /  0.0 mm
15:55 74.8 °F /  23.8 °C 53.2 °F /  11.8 °C 29.8 in /  1010.0 hPa South 3.5 mph /  5.6 km/h 3.5 mph /  5.6 km/h 47 % 0 in /  0.0 mm
16:00 75.2 °F /  24.0 °C 53.1 °F /  11.7 °C 29.8 in /  1010.0 hPa West 4.6 mph /  7.4 km/h 4.6 mph /  7.4 km/h 46 % 0 in /  0.0 mm
16:05 75.2 °F /  24.0 °C 51.3 °F /  10.7 °C 29.8 in /  1010.0 hPa SW 6.9 mph /  11.1 km/h 6.9 mph /  11.1 km/h 43 % 0 in /  0.0 mm
16:10 75.7 °F /  24.3 °C 52.3 °F /  11.3 °C 29.8 in /  1010.0 hPa SW 5.8 mph /  9.3 km/h 5.8 mph /  9.3 km/h 44 % 0 in /  0.0 mm
16:15 76.1 °F /  24.5 °C 50.7 °F /  10.4 °C 29.8 in /  1010.0 hPa SSW 4.6 mph /  7.4 km/h 4.6 mph /  7.4 km/h 41 % 0 in /  0.0 mm
16:20 75.6 °F /  24.2 °C 49.5 °F /  9.7 °C 29.8 in /  1010.0 hPa South 5.8 mph /  9.3 km/h 5.8 mph /  9.3 km/h 40 % 0 in /  0.0 mm
16:25 75.9 °F /  24.4 °C 50.5 °F /  10.3 °C 29.8 in /  1010.0 hPa SW 6 mph /  9.7 km/h 6 mph /  9.7 km/h 41 % 0 in /  0.0 mm
16:30 75.7 °F /  24.3 °C 49.6 °F /  9.8 °C 29.8 in /  1009.0 hPa WSW 6.9 mph /  11.1 km/h 6.9 mph /  11.1 km/h 40 % 0 in /  0.0 mm
16:35 75.9 °F /  24.4 °C 49.3 °F /  9.6 °C 29.8 in /  1009.0 hPa WSW 4.6 mph /  7.4 km/h 4.6 mph /  7.4 km/h 39 % 0 in /  0.0 mm
16:40 76.8 °F /  24.9 °C 50 °F /  10.0 °C 29.8 in /  1009.0 hPa South 4.6 mph /  7.4 km/h 4.6 mph /  7.4 km/h 39 % 0 in /  0.0 mm
16:45 75.9 °F /  24.4 °C 48.6 °F /  9.2 °C 29.8 in /  1009.0 hPa SW 3.5 mph /  5.6 km/h 3.5 mph /  5.6 km/h 38 % 0 in /  0.0 mm
16:50 75.9 °F /  24.4 °C 48.6 °F /  9.2 °C 29.8 in /  1009.0 hPa SW 5.8 mph /  9.3 km/h 5.8 mph /  9.3 km/h 38 % 0 in /  0.0 mm
16:55 75.7 °F /  24.3 °C 48.4 °F /  9.1 °C 29.8 in /  1009.0 hPa West 5.8 mph /  9.3 km/h 5.8 mph /  9.3 km/h 38 % 0 in /  0.0 mm
17:00 75.2 °F /  24.0 °C 47.8 °F /  8.8 °C 29.8 in /  1008.0 hPa South 3.8 mph /  6.1 km/h 3.8 mph /  6.1 km/h 38 % 0 in /  0.0 mm
17:05 75.2 °F /  24.0 °C 47.1 °F /  8.4 °C 29.8 in /  1008.0 hPa SW 5.8 mph /  9.3 km/h 5.8 mph /  9.3 km/h 37 % 0 in /  0.0 mm
17:10 75 °F /  23.9 °C 46.2 °F /  7.9 °C 29.8 in /  1008.0 hPa West 3.5 mph /  5.6 km/h 3.5 mph /  5.6 km/h 36 % 0 in /  0.0 mm
17:15 74.8 °F /  23.8 °C 46.8 °F /  8.2 °C 29.8 in /  1009.0 hPa SW 4.6 mph /  7.4 km/h 4.6 mph /  7.4 km/h 37 % 0 in /  0.0 mm
17:20 73.6 °F /  23.1 °C 47.1 °F /  8.4 °C 29.8 in /  1009.0 hPa SSW 5.8 mph /  9.3 km/h 5.8 mph /  9.3 km/h 39 % 0 in /  0.0 mm
17:25 72 °F /  22.2 °C 48.9 °F /  9.4 °C 29.8 in /  1009.0 hPa ENE 6 mph /  9.7 km/h 6 mph /  9.7 km/h 44 % 0 in /  0.0 mm
17:30 70.9 °F /  21.6 °C 49.6 °F /  9.8 °C 29.8 in /  1008.0 hPa East 6.9 mph /  11.1 km/h 6.9 mph /  11.1 km/h 47 % 0 in /  0.0 mm
17:35 69.8 °F /  21.0 °C 49.3 °F /  9.6 °C 29.8 in /  1008.0 hPa NE 8.1 mph /  13.0 km/h 8.1 mph /  13.0 km/h 48 % 0 in /  0.0 mm
17:40 70 °F /  21.1 °C 49.8 °F /  9.9 °C 29.8 in /  1008.0 hPa SE 6.4 mph /  10.3 km/h 6.4 mph /  10.3 km/h 49 % 0 in /  0.0 mm
17:45 69.6 °F /  20.9 °C 50.7 °F /  10.4 °C 29.8 in /  1008.0 hPa ESE 6.9 mph /  11.1 km/h 6.9 mph /  11.1 km/h 51 % 0 in /  0.0 mm
17:50 69.4 °F /  20.8 °C 50.5 °F /  10.3 °C 29.8 in /  1008.0 hPa ESE 9.2 mph /  14.8 km/h 9.2 mph /  14.8 km/h 51 % 0 in /  0.0 mm
17:51 69.4 °F /  20.8 °C 50.5 °F /  10.3 °C 29.8 in /  1008.0 hPa ESE 10.4 mph /  16.7 km/h 10.4 mph /  16.7 km/h 51 % 0 in /  0.0 mm
17:56 69.3 °F /  20.7 °C 50.9 °F /  10.5 °C 29.8 in /  1008.0 hPa SE 8.5 mph /  13.7 km/h 8.5 mph /  13.7 km/h 52 % 0 in /  0.0 mm
18:01 69.3 °F /  20.7 °C 50.9 °F /  10.5 °C 29.8 in /  1008.0 hPa ESE 10.4 mph /  16.7 km/h 10.4 mph /  16.7 km/h 52 % 0 in /  0.0 mm
18:06 68.9 °F /  20.5 °C 51.1 °F /  10.6 °C 29.8 in /  1008.0 hPa SSW 8.1 mph /  13.0 km/h 8.1 mph /  13.0 km/h 53 % 0 in /  0.0 mm
18:11 70 °F /  21.1 °C 51.1 °F /  10.6 °C 29.8 in /  1008.0 hPa ESE 3.5 mph /  5.6 km/h 3.5 mph /  5.6 km/h 51 % 0 in /  0.0 mm
18:16 71.1 °F /  21.7 °C 51.4 °F /  10.8 °C 29.8 in /  1008.0 hPa South 2.3 mph /  3.7 km/h 2.3 mph /  3.7 km/h 50 % 0 in /  0.0 mm
18:21 71.6 °F /  22.0 °C 51.4 °F /  10.8 °C 29.8 in /  1008.0 hPa South 4.6 mph /  7.4 km/h 4.6 mph /  7.4 km/h 49 % 0 in /  0.0 mm
18:26 72.1 °F /  22.3 °C 50.7 °F /  10.4 °C 29.7 in /  1007.0 hPa SSE 4.6 mph /  7.4 km/h 4.6 mph /  7.4 km/h 47 % 0 in /  0.0 mm
18:31 72.3 °F /  22.4 °C 49.3 °F /  9.6 °C 29.7 in /  1007.0 hPa SSW 3.5 mph /  5.6 km/h 3.5 mph /  5.6 km/h 44 % 0 in /  0.0 mm
18:36 71.6 °F /  22.0 °C 49.6 °F /  9.8 °C 29.7 in /  1007.0 hPa South 5.8 mph /  9.3 km/h 5.8 mph /  9.3 km/h 46 % 0 in /  0.0 mm
18:41 70.3 °F /  21.3 °C 49.6 °F /  9.8 °C 29.8 in /  1008.0 hPa SE 5.8 mph /  9.3 km/h 5.8 mph /  9.3 km/h 48 % 0 in /  0.0 mm
18:46 68 °F /  20.0 °C 49.3 °F /  9.6 °C 29.8 in /  1008.0 hPa ENE 9.2 mph /  14.8 km/h 9.2 mph /  14.8 km/h 51 % 0 in /  0.0 mm
18:51 67.5 °F /  19.7 °C 49.6 °F /  9.8 °C 29.8 in /  1008.0 hPa ENE 5.8 mph /  9.3 km/h 5.8 mph /  9.3 km/h 53 % 0 in /  0.0 mm
18:56 66.7 °F /  19.3 °C 49.6 °F /  9.8 °C 29.8 in /  1008.0 hPa ESE 10.4 mph /  16.7 km/h 10.4 mph /  16.7 km/h 54 % 0 in /  0.0 mm
19:01 66.4 °F /  19.1 °C 50.2 °F /  10.1 °C 29.8 in /  1008.0 hPa ESE 5.8 mph /  9.3 km/h 6.2 mph /  10.0 km/h 56 % 0 in /  0.0 mm
19:06 65.5 °F /  18.6 °C 50.7 °F /  10.4 °C 29.8 in /  1008.0 hPa ESE 6.9 mph /  11.1 km/h 6.9 mph /  11.1 km/h 59 % 0 in /  0.0 mm
19:11 65.3 °F /  18.5 °C 50.2 °F /  10.1 °C 29.8 in /  1008.0 hPa ESE 5.9 mph /  9.5 km/h 5.9 mph /  9.5 km/h 58 % 0 in /  0.0 mm
19:16 65.1 °F /  18.4 °C 50.4 °F /  10.2 °C 29.8 in /  1008.0 hPa ESE 10.2 mph /  16.4 km/h 10.2 mph /  16.4 km/h 59 % 0 in /  0.0 mm
19:20 59.7 °F /  15.4 °C 52.2 °F /  11.2 °C 29.8 in /  1009.0 hPa NE 2 mph /  3.2 km/h 3 mph /  4.8 km/h 76 % 0 in /  0.0 mm
19:21 64.9 °F /  18.3 °C 50.7 °F /  10.4 °C 29.8 in /  1008.0 hPa SSW 5.8 mph /  9.3 km/h 5.8 mph /  9.3 km/h 60 % 0 in /  0.0 mm
19:27 64.9 °F /  18.3 °C 50.7 °F /  10.4 °C 29.8 in /  1008.0 hPa ESE 8.1 mph /  13.0 km/h 8.1 mph /  13.0 km/h 60 % 0 in /  0.0 mm
19:30 59.7 °F /  15.4 °C 52.5 °F /  11.4 °C 29.8 in /  1009.0 hPa NE 1 mph /  1.6 km/h 3 mph /  4.8 km/h 77 % 0 in /  0.0 mm
19:32 64.8 °F /  18.2 °C 50.5 °F /  10.3 °C 29.8 in /  1008.0 hPa ESE 6.9 mph /  11.1 km/h 6.9 mph /  11.1 km/h 60 % 0 in /  0.0 mm
19:37 64.9 °F /  18.3 °C 50.7 °F /  10.4 °C 29.8 in /  1008.0 hPa SSE 3.5 mph /  5.6 km/h 3.5 mph /  5.6 km/h 60 % 0 in /  0.0 mm
19:40 59.7 °F /  15.4 °C 52.5 °F /  11.4 °C 29.8 in /  1008.0 hPa Calm   1 mph /  1.6 km/h 77 % 0 in /  0.0 mm
19:42 64.8 °F /  18.2 °C 50.2 °F /  10.1 °C 29.8 in /  1008.0 hPa ESE 5.8 mph /  9.3 km/h 5.8 mph /  9.3 km/h 59 % 0 in /  0.0 mm
19:47 64.8 °F /  18.2 °C 50.2 °F /  10.1 °C 29.8 in /  1008.0 hPa South 3.1 mph /  5.0 km/h 3.1 mph /  5.0 km/h 59 % 0 in /  0.0 mm
19:50 59.7 °F /  15.4 °C 52.9 °F /  11.6 °C 29.8 in /  1009.0 hPa Calm   2 mph /  3.2 km/h 78 % 0 in /  0.0 mm
19:52 64.6 °F /  18.1 °C 49.8 °F /  9.9 °C 29.8 in /  1008.0 hPa South 4.6 mph /  7.4 km/h 4.6 mph /  7.4 km/h 59 % 0 in /  0.0 mm
19:53 64.6 °F /  18.1 °C 49.8 °F /  9.9 °C 29.8 in /  1008.0 hPa SSE 4.6 mph /  7.4 km/h 4.6 mph /  7.4 km/h 59 % 0 in /  0.0 mm
19:58 64.6 °F /  18.1 °C 49.5 °F /  9.7 °C 29.8 in /  1008.0 hPa SE 3.5 mph /  5.6 km/h 3.5 mph /  5.6 km/h 58 % 0 in /  0.0 mm
20:00 59.5 °F /  15.3 °C 52.7 °F /  11.5 °C 29.8 in /  1009.0 hPa Calm   2 mph /  3.2 km/h 78 % 0 in /  0.0 mm
20:03 64.6 °F /  18.1 °C 49.5 °F /  9.7 °C 29.8 in /  1008.0 hPa ESE 3.5 mph /  5.6 km/h 3.5 mph /  5.6 km/h 58 % 0 in /  0.0 mm
20:08 64 °F /  17.8 °C 49.5 °F /  9.7 °C 29.8 in /  1008.0 hPa ESE 4.6 mph /  7.4 km/h 4.6 mph /  7.4 km/h 59 % 0 in /  0.0 mm
20:10 59.4 °F /  15.2 °C 52.5 °F /  11.4 °C 29.8 in /  1009.0 hPa West 1 mph /  1.6 km/h 2 mph /  3.2 km/h 78 % 0 in /  0.0 mm
20:13 63.5 °F /  17.5 °C 49.5 °F /  9.7 °C 29.8 in /  1008.0 hPa East 4.6 mph /  7.4 km/h 4.6 mph /  7.4 km/h 60 % 0 in /  0.0 mm
20:18 63.1 °F /  17.3 °C 49.5 °F /  9.7 °C 29.8 in /  1008.0 hPa ESE 5.8 mph /  9.3 km/h 5.8 mph /  9.3 km/h 61 % 0 in /  0.0 mm
20:20 59.4 °F /  15.2 °C 52.5 °F /  11.4 °C 29.8 in /  1008.0 hPa Calm   1 mph /  1.6 km/h 78 % 0 in /  0.0 mm
20:23 63 °F /  17.2 °C 50.2 °F /  10.1 °C 29.8 in /  1008.0 hPa ESE 5.4 mph /  8.7 km/h 5.4 mph /  8.7 km/h 63 % 0 in /  0.0 mm
20:28 62.6 °F /  17.0 °C 50.2 °F /  10.1 °C 29.8 in /  1008.0 hPa East 4.6 mph /  7.4 km/h 4.6 mph /  7.4 km/h 64 % 0 in /  0.0 mm
20:30 59.4 °F /  15.2 °C 52.5 °F /  11.4 °C 29.8 in /  1008.0 hPa Calm     78 % 0 in /  0.0 mm
20:33 62.4 °F /  16.9 °C 50.9 °F /  10.5 °C 29.8 in /  1008.0 hPa ESE 5.8 mph /  9.3 km/h 5.8 mph /  9.3 km/h 66 % 0 in /  0.0 mm
20:38 62.4 °F /  16.9 °C 50.5 °F /  10.3 °C 29.8 in /  1008.0 hPa SE 2.3 mph /  3.7 km/h 2.3 mph /  3.7 km/h 65 % 0 in /  0.0 mm
20:40 59.2 °F /  15.1 °C 52.3 °F /  11.3 °C 29.8 in /  1008.0 hPa Calm     78 % 0 in /  0.0 mm
20:43 62.2 °F /  16.8 °C 50.7 °F /  10.4 °C 29.8 in /  1008.0 hPa South 1.2 mph /  1.9 km/h 1.2 mph /  1.9 km/h 66 % 0 in /  0.0 mm
20:48 62.2 °F /  16.8 °C 50.4 °F /  10.2 °C 29.8 in /  1008.0 hPa WSW 2.3 mph /  3.7 km/h 2.3 mph /  3.7 km/h 65 % 0 in /  0.0 mm
20:50 59.2 °F /  15.1 °C 52.3 °F /  11.3 °C 29.8 in /  1008.0 hPa NNE 2 mph /  3.2 km/h 2 mph /  3.2 km/h 78 % 0 in /  0.0 mm
20:53 62.2 °F /  16.8 °C 50.4 °F /  10.2 °C 29.8 in /  1008.0 hPa Calm     65 % 0 in /  0.0 mm
20:58 62.2 °F /  16.8 °C 50.4 °F /  10.2 °C 29.8 in /  1008.0 hPa WSW 1.2 mph /  1.9 km/h   65 % 0 in /  0.0 mm
21:00 59.2 °F /  15.1 °C 52.7 °F /  11.5 °C 29.8 in /  1008.0 hPa Calm   1 mph /  1.6 km/h 79 % 0 in /  0.0 mm
21:03 62.2 °F /  16.8 °C 50.7 °F /  10.4 °C 29.8 in /  1008.0 hPa NE 1.4 mph /  2.3 km/h   66 % 0 in /  0.0 mm
21:08 61.9 °F /  16.6 °C 50.4 °F /  10.2 °C 29.8 in /  1008.0 hPa NNE 2.3 mph /  3.7 km/h 2.3 mph /  3.7 km/h 66 % 0 in /  0.0 mm
21:10 59 °F /  15.0 °C 52.5 °F /  11.4 °C 29.8 in /  1008.0 hPa Calm   2 mph /  3.2 km/h 79 % 0 in /  0.0 mm
21:13 61.7 °F /  16.5 °C 50.5 °F /  10.3 °C 29.8 in /  1009.0 hPa NE 1.4 mph /  2.3 km/h 1.4 mph /  2.3 km/h 67 % 0 in /  0.0 mm
21:18 61.7 °F /  16.5 °C 50.5 °F /  10.3 °C 29.8 in /  1009.0 hPa NNE 3.5 mph /  5.6 km/h 3.5 mph /  5.6 km/h 67 % 0 in /  0.0 mm
21:20 58.8 °F /  14.9 °C 52 °F /  11.1 °C 29.8 in /  1008.0 hPa ENE 1 mph /  1.6 km/h 2 mph /  3.2 km/h 78 % 0 in /  0.0 mm
21:23 61.7 °F /  16.5 °C 50.5 °F /  10.3 °C 29.8 in /  1009.0 hPa NNE 3.5 mph /  5.6 km/h 3.5 mph /  5.6 km/h 67 % 0 in /  0.0 mm
21:25 61.5 °F /  16.4 °C 50.5 °F /  10.3 °C 29.8 in /  1008.0 hPa NNE 3.5 mph /  5.6 km/h 3.5 mph /  5.6 km/h 67 % 0 in /  0.0 mm
21:30 61.7 °F /  16.5 °C 50.5 °F /  10.3 °C 29.8 in /  1008.0 hPa NE 2.3 mph /  3.7 km/h 2.3 mph /  3.7 km/h 67 % 0 in /  0.0 mm
21:35 61.5 °F /  16.4 °C 50.9 °F /  10.5 °C 29.8 in /  1008.0 hPa NE 3.5 mph /  5.6 km/h 3.5 mph /  5.6 km/h 68 % 0 in /  0.0 mm
21:40 61.3 °F /  16.3 °C 51.1 °F /  10.6 °C 29.8 in /  1008.0 hPa NNE 4.6 mph /  7.4 km/h 4.6 mph /  7.4 km/h 69 % 0 in /  0.0 mm
21:46 61.2 °F /  16.2 °C 50.9 °F /  10.5 °C 29.8 in /  1008.0 hPa NNE 4.3 mph /  6.9 km/h 4.3 mph /  6.9 km/h 69 % 0 in /  0.0 mm
21:50 58.3 °F /  14.6 °C 51.8 °F /  11.0 °C 29.7 in /  1007.0 hPa Calm     79 % 0 in /  0.0 mm
21:51 61.2 °F /  16.2 °C 50.9 °F /  10.5 °C 29.8 in /  1008.0 hPa ENE 4.6 mph /  7.4 km/h 4.6 mph /  7.4 km/h 69 % 0 in /  0.0 mm
21:56 61 °F /  16.1 °C 51.4 °F /  10.8 °C 29.7 in /  1007.0 hPa ESE 4.6 mph /  7.4 km/h 4.6 mph /  7.4 km/h 71 % 0 in /  0.0 mm
22:00 58.3 °F /  14.6 °C 51.8 °F /  11.0 °C 29.7 in /  1007.0 hPa Calm     79 % 0 in /  0.0 mm
22:01 61 °F /  16.1 °C 51.4 °F /  10.8 °C 29.7 in /  1007.0 hPa ENE 5.8 mph /  9.3 km/h 5.8 mph /  9.3 km/h 71 % 0 in /  0.0 mm
22:06 60.8 °F /  16.0 °C 51.3 °F /  10.7 °C 29.7 in /  1007.0 hPa ESE 5.8 mph /  9.3 km/h 5.8 mph /  9.3 km/h 71 % 0 in /  0.0 mm
22:10 58.3 °F /  14.6 °C 51.8 °F /  11.0 °C 29.7 in /  1007.0 hPa East 1 mph /  1.6 km/h 1 mph /  1.6 km/h 79 % 0 in /  0.0 mm
22:12 60.6 °F /  15.9 °C 51.4 °F /  10.8 °C 29.8 in /  1008.0 hPa ENE 5.8 mph /  9.3 km/h 5.8 mph /  9.3 km/h 72 % 0 in /  0.0 mm
22:17 60.6 °F /  15.9 °C 52 °F /  11.1 °C 29.8 in /  1008.0 hPa ESE 4.6 mph /  7.4 km/h 4.6 mph /  7.4 km/h 73 % 0 in /  0.0 mm
22:20 58.1 °F /  14.5 °C 51.6 °F /  10.9 °C 29.7 in /  1007.0 hPa Calm   1 mph /  1.6 km/h 79 % 0 in /  0.0 mm
22:22 60.4 °F /  15.8 °C 51.6 °F /  10.9 °C 29.8 in /  1008.0 hPa East 4.6 mph /  7.4 km/h 4.7 mph /  7.6 km/h 73 % 0 in /  0.0 mm
22:27 60.4 °F /  15.8 °C 52.2 °F /  11.2 °C 29.8 in /  1008.0 hPa ESE 6.9 mph /  11.1 km/h 6.9 mph /  11.1 km/h 74 % 0 in /  0.0 mm
22:30 58.1 °F /  14.5 °C 51.6 °F /  10.9 °C 29.7 in /  1007.0 hPa Calm   2 mph /  3.2 km/h 79 % 0 in /  0.0 mm
22:32 60.3 °F /  15.7 °C 52 °F /  11.1 °C 29.8 in /  1008.0 hPa East 5.8 mph /  9.3 km/h 5.8 mph /  9.3 km/h 74 % 0 in /  0.0 mm
22:37 60.3 °F /  15.7 °C 52.7 °F /  11.5 °C 29.8 in /  1008.0 hPa ENE 5.8 mph /  9.3 km/h 5.8 mph /  9.3 km/h 76 % 0 in /  0.0 mm
22:40 57.9 °F /  14.4 °C 51.4 °F /  10.8 °C 29.7 in /  1006.0 hPa West 1 mph /  1.6 km/h 2 mph /  3.2 km/h 79 % 0 in /  0.0 mm
22:42 60.3 °F /  15.7 °C 52.7 °F /  11.5 °C 29.8 in /  1008.0 hPa East 4.6 mph /  7.4 km/h 4.6 mph /  7.4 km/h 76 % 0 in /  0.0 mm
22:47 60.1 °F /  15.6 °C 52.5 °F /  11.4 °C 29.8 in /  1008.0 hPa East 3.5 mph /  5.6 km/h 3.5 mph /  5.6 km/h 76 % 0 in /  0.0 mm
22:50 57.2 °F /  14.0 °C 51.1 °F /  10.6 °C 29.7 in /  1007.0 hPa SW 1 mph /  1.6 km/h 3 mph /  4.8 km/h 80 % 0 in /  0.0 mm
22:52 60.1 °F /  15.6 °C 52.5 °F /  11.4 °C 29.8 in /  1008.0 hPa ENE 2.9 mph /  4.7 km/h 2.9 mph /  4.7 km/h 76 % 0 in /  0.0 mm
22:57 60.1 °F /  15.6 °C 52.5 °F /  11.4 °C 29.8 in /  1008.0 hPa ENE 3.5 mph /  5.6 km/h 3.5 mph /  5.6 km/h 76 % 0 in /  0.0 mm
23:00 57.2 °F /  14.0 °C 51.1 °F /  10.6 °C 29.7 in /  1007.0 hPa SW 1 mph /  1.6 km/h 2 mph /  3.2 km/h 80 % 0 in /  0.0 mm
23:03 60.1 °F /  15.6 °C 52.5 °F /  11.4 °C 29.8 in /  1008.0 hPa Calm     76 % 0 in /  0.0 mm
23:08 60.1 °F /  15.6 °C 52.5 °F /  11.4 °C 29.8 in /  1008.0 hPa Calm     76 % 0 in /  0.0 mm
23:10 57.2 °F /  14.0 °C 51.1 °F /  10.6 °C 29.7 in /  1007.0 hPa Calm   1 mph /  1.6 km/h 80 % 0 in /  0.0 mm
23:13 60.1 °F /  15.6 °C 52.5 °F /  11.4 °C 29.8 in /  1009.0 hPa Calm     76 % 0 in /  0.0 mm
23:18 60.1 °F /  15.6 °C 52.5 °F /  11.4 °C 29.8 in /  1009.0 hPa SE 1.2 mph /  1.9 km/h 1.2 mph /  1.9 km/h 76 % 0 in /  0.0 mm
23:20 57.2 °F /  14.0 °C 51.1 °F /  10.6 °C 29.7 in /  1007.0 hPa Calm   1 mph /  1.6 km/h 80 % 0 in /  0.0 mm
23:23 59.9 °F /  15.5 °C 52.3 °F /  11.3 °C 29.8 in /  1009.0 hPa East 4.6 mph /  7.4 km/h 4.6 mph /  7.4 km/h 76 % 0 in /  0.0 mm
23:28 60.1 °F /  15.6 °C 52.5 °F /  11.4 °C 29.8 in /  1009.0 hPa East 2.9 mph /  4.7 km/h 2.9 mph /  4.7 km/h 76 % 0 in /  0.0 mm
23:30 56.7 °F /  13.7 °C 50.5 °F /  10.3 °C 29.7 in /  1007.0 hPa West 1 mph /  1.6 km/h 2 mph /  3.2 km/h 80 % 0 in /  0.0 mm
23:33 59.9 °F /  15.5 °C 52.3 °F /  11.3 °C 29.8 in /  1009.0 hPa ENE 2.3 mph /  3.7 km/h 2.3 mph /  3.7 km/h 76 % 0 in /  0.0 mm
23:38 59.9 °F /  15.5 °C 52.7 °F /  11.5 °C 29.8 in /  1009.0 hPa NE 2.3 mph /  3.7 km/h 2.3 mph /  3.7 km/h 77 % 0 in /  0.0 mm
23:40 56.7 °F /  13.7 °C 50.9 °F /  10.5 °C 29.7 in /  1007.0 hPa West 1 mph /  1.6 km/h 2 mph /  3.2 km/h 81 % 0 in /  0.0 mm
23:43 59.9 °F /  15.5 °C 52.3 °F /  11.3 °C 29.8 in /  1009.0 hPa NNE 2.3 mph /  3.7 km/h 2.3 mph /  3.7 km/h 76 % 0 in /  0.0 mm
23:48 59.9 °F /  15.5 °C 52.3 °F /  11.3 °C 29.8 in /  1009.0 hPa NE 1.2 mph /  1.9 km/h 1.4 mph /  2.3 km/h 76 % 0 in /  0.0 mm
23:50 56.5 °F /  13.6 °C 50.7 °F /  10.4 °C 29.7 in /  1006.0 hPa North 1 mph /  1.6 km/h 2 mph /  3.2 km/h 81 % 0 in /  0.0 mm
23:53 59.9 °F /  15.5 °C 52.3 °F /  11.3 °C 29.8 in /  1009.0 hPa NNE 2.3 mph /  3.7 km/h 2.3 mph /  3.7 km/h 76 % 0 in /  0.0 mm
23:59 59.9 °F /  15.5 °C 52.3 °F /  11.3 °C 29.8 in /  1009.0 hPa NNE 2.3 mph /  3.7 km/h 2.3 mph /  3.7 km/h 76 % 0 in /  0.0 mm
Meteo Sesrovires
Elogis d' Weather Underground - 3.75 mb

Guio original per  Jim McMurry - jmcmurry@mwt.net Adaptat per a la plantilla per  Wim van der Kuil - Leuven-Template.eu

Trobareu la nostra informacio del temps tambe a:

Weather Underground

AWEKAS